Time;durP1;ratioP1;P1;durP2;ratioP2;P2;SDS_P1;SDS_P2;PMS_P1;PMS_P2;Temp;Humidity;BMP_temperature;BMP_pressure;BME280_temperature;BME280_humidity;BME280_pressure;Samples;Min_cycle;Max_cycle;Signal;HPM_P1;HPM_P2
2021/04/15 00:00:22;;;;;;;11.02;7.05;;;;;;;;;;5093515;28;20198;-55
2021/04/15 00:02:49;;;;;;;10.40;6.93;;;;;;;;;;5093822;28;20189;-55
2021/04/15 00:05:16;;;;;;;9.13;7.60;;;;;;;;;;5093382;28;20174;-56
2021/04/15 00:07:42;;;;;;;8.23;7.03;;;;;;;;;;5093555;28;20164;-55
2021/04/15 00:10:11;;;;;;;8.60;7.10;;;;;;;;;;5093281;28;20650;-54
2021/04/15 00:12:38;;;;;;;10.52;7.55;;;;;;;;;;5093404;28;20458;-55
2021/04/15 00:15:09;;;;;;;8.25;7.22;;;;;;;;;;5093112;28;20165;-55
2021/04/15 00:17:35;;;;;;;8.98;7.10;;;;;;;;;;5093476;28;20311;-54
2021/04/15 00:20:01;;;;;;;8.63;7.57;;;;;;;;;;5093220;28;20263;-55
2021/04/15 00:22:27;;;;;;;7.40;6.70;;;;;;;;;;5093656;28;20404;-56
2021/04/15 00:24:53;;;;;;;10.70;8.00;;;;;;;;;;5093404;28;20406;-55
2021/04/15 00:27:20;;;;;;;8.63;7.70;;;;;;;;;;5093387;28;20461;-55
2021/04/15 00:29:46;;;;;;;8.15;7.45;;;;;;;;;;5093278;28;20473;-54
2021/04/15 00:32:13;;;;;;;8.40;7.03;;;;;;;;;;5093137;28;20193;-55
2021/04/15 00:34:38;;;;;;;11.35;7.60;;;;;;;;;;5093483;28;20346;-55
2021/04/15 00:37:04;;;;;;;21.47;7.70;;;;;;;;;;5092836;28;20177;-55
2021/04/15 00:39:30;;;;;;;8.70;7.80;;;;;;;;;;5092868;28;20427;-54
2021/04/15 00:41:56;;;;;;;9.53;7.50;;;;;;;;;;5092880;28;20418;-55
2021/04/15 00:44:22;;;;;;;9.17;8.27;;;;;;;;;;5092330;28;20441;-54
2021/04/15 00:46:54;;;;;;;9.03;7.60;;;;;;;;;;5092480;28;20403;-55
2021/04/15 00:49:24;;;;;;;12.00;8.18;;;;;;;;;;5092792;28;20419;-55
2021/04/15 00:51:52;;;;;;;10.23;7.72;;;;;;;;;;5092503;28;20168;-56
2021/04/15 00:54:28;;;;;;;8.40;7.53;;;;;;;;;;5092688;28;20165;-55
2021/04/15 00:56:54;;;;;;;11.57;8.38;;;;;;;;;;5092265;28;20164;-56
2021/04/15 00:59:20;;;;;;;10.57;7.90;;;;;;;;;;5092540;28;20201;-55
2021/04/15 01:01:46;;;;;;;10.43;8.90;;;;;;;;;;5091884;28;20529;-55
2021/04/15 01:04:12;;;;;;;9.60;7.90;;;;;;;;;;5092058;28;20249;-55
2021/04/15 01:06:38;;;;;;;13.30;10.30;;;;;;;;;;5091636;28;20400;-55
2021/04/15 01:09:04;;;;;;;16.67;11.90;;;;;;;;;;5092313;28;20185;-56
2021/04/15 01:11:41;;;;;;;11.88;9.70;;;;;;;;;;5092272;28;20914;-55
2021/04/15 01:14:24;;;;;;;10.43;8.10;;;;;;;;;;5092260;28;20177;-54
2021/04/15 01:17:08;;;;;;;12.13;9.43;;;;;;;;;;5091942;28;20158;-55
2021/04/15 01:19:52;;;;;;;13.45;9.60;;;;;;;;;;5091970;28;20193;-55
2021/04/15 01:22:24;;;;;;;11.57;10.05;;;;;;;;;;5091984;28;20244;-55
2021/04/15 01:24:54;;;;;;;11.27;8.52;;;;;;;;;;5092119;28;20252;-55
2021/04/15 01:27:41;;;;;;;10.68;8.98;;;;;;;;;;5091768;28;20184;-55
2021/04/15 01:30:10;;;;;;;9.05;8.13;;;;;;;;;;5092099;28;20680;-54
2021/04/15 01:32:38;;;;;;;8.68;7.50;;;;;;;;;;5091794;28;20198;-55
2021/04/15 01:35:14;;;;;;;9.82;6.75;;;;;;;;;;5091433;28;20173;-55
2021/04/15 01:37:42;;;;;;;14.02;7.78;;;;;;;;;;5091658;28;20164;-55
2021/04/15 01:40:12;;;;;;;9.55;8.18;;;;;;;;;;5091495;28;20256;-55
2021/04/15 01:42:42;;;;;;;10.95;8.30;;;;;;;;;;5091736;28;20163;-56
2021/04/15 01:45:09;;;;;;;14.52;9.50;;;;;;;;;;5091407;28;20245;-54
2021/04/15 01:47:43;;;;;;;14.93;10.05;;;;;;;;;;5091657;28;20166;-54
2021/04/15 01:50:30;;;;;;;26.80;9.60;;;;;;;;;;5091324;28;20566;-55
2021/04/15 01:52:58;;;;;;;14.43;10.27;;;;;;;;;;5091435;28;20201;-54
2021/04/15 01:55:42;;;;;;;9.20;7.72;;;;;;;;;;5090671;28;20164;-54
2021/04/15 01:58:34;;;;;;;18.35;10.45;;;;;;;;;;5091308;28;20577;-55
2021/04/15 02:01:07;;;;;;;11.95;8.55;;;;;;;;;;5086706;28;20185;-55
2021/04/15 02:03:37;;;;;;;11.32;9.48;;;;;;;;;;5091358;28;20592;-56
2021/04/15 02:06:05;;;;;;;14.73;9.30;;;;;;;;;;5091113;28;20169;-55
2021/04/15 02:08:32;;;;;;;15.45;10.20;;;;;;;;;;5091209;28;20228;-55
2021/04/15 02:11:00;;;;;;;16.02;10.18;;;;;;;;;;5091595;28;20199;-55
2021/04/15 02:13:27;;;;;;;15.15;11.63;;;;;;;;;;5091216;28;20205;-54
2021/04/15 02:15:56;;;;;;;10.65;9.38;;;;;;;;;;5090782;28;20245;-55
2021/04/15 02:18:31;;;;;;;10.65;8.55;;;;;;;;;;5091048;28;20189;-56
2021/04/15 02:21:01;;;;;;;12.95;9.82;;;;;;;;;;5090940;28;20157;-55
2021/04/15 02:23:29;;;;;;;14.88;9.93;;;;;;;;;;5091089;28;20173;-54
2021/04/15 02:25:57;;;;;;;12.40;10.30;;;;;;;;;;5090809;28;20649;-55
2021/04/15 02:28:29;;;;;;;13.13;9.45;;;;;;;;;;5091112;28;20173;-56
2021/04/15 02:30:55;;;;;;;15.77;9.98;;;;;;;;;;5090998;28;20169;-54
2021/04/15 02:33:25;;;;;;;16.27;11.00;;;;;;;;;;5090736;28;20733;-55
2021/04/15 02:35:56;;;;;;;15.85;9.23;;;;;;;;;;5090672;28;20892;-55
2021/04/15 02:38:24;;;;;;;14.93;10.68;;;;;;;;;;5090675;28;20210;-55
2021/04/15 02:40:54;;;;;;;16.17;9.65;;;;;;;;;;5090906;28;20169;-55
2021/04/15 02:43:35;;;;;;;16.33;9.18;;;;;;;;;;5090764;28;20211;-56
2021/04/15 02:46:02;;;;;;;22.27;10.15;;;;;;;;;;5090825;28;20234;-56
2021/04/15 02:48:30;;;;;;;13.25;10.07;;;;;;;;;;5090612;28;20230;-55
2021/04/15 02:51:01;;;;;;;13.00;9.85;;;;;;;;;;5090820;28;20598;-54
2021/04/15 02:53:28;;;;;;;13.60;9.90;;;;;;;;;;5090467;28;20201;-55
2021/04/15 02:56:04;;;;;;;13.10;10.27;;;;;;;;;;5090428;28;20175;-56
2021/04/15 02:58:36;;;;;;;14.88;10.60;;;;;;;;;;5090285;28;20197;-54
2021/04/15 03:01:02;;;;;;;13.85;10.75;;;;;;;;;;5090483;28;20166;-54
2021/04/15 03:03:33;;;;;;;20.48;11.18;;;;;;;;;;5090316;28;20244;-55
2021/04/15 03:06:06;;;;;;;16.15;11.82;;;;;;;;;;5090540;28;20219;-55
2021/04/15 03:08:32;;;;;;;15.30;10.65;;;;;;;;;;5093684;28;20287;-55
2021/04/15 03:11:03;;;;;;;15.82;10.30;;;;;;;;;;5094585;28;20182;-54
2021/04/15 03:13:31;;;;;;;10.63;9.52;;;;;;;;;;5094526;28;20311;-55
2021/04/15 03:16:01;;;;;;;11.20;10.02;;;;;;;;;;5094143;28;20172;-55
2021/04/15 03:18:33;;;;;;;16.05;11.30;;;;;;;;;;5094632;28;20186;-55
2021/04/15 03:21:04;;;;;;;12.43;10.27;;;;;;;;;;5094380;28;20631;-55
2021/04/15 03:23:35;;;;;;;14.32;10.90;;;;;;;;;;5094458;28;20653;-54
2021/04/15 03:26:06;;;;;;;17.30;12.98;;;;;;;;;;5094013;28;20250;-55
2021/04/15 03:28:35;;;;;;;18.20;11.25;;;;;;;;;;5094296;28;20639;-56
2021/04/15 03:31:16;;;;;;;18.40;11.30;;;;;;;;;;5094144;28;20169;-55
2021/04/15 03:33:52;;;;;;;18.55;12.57;;;;;;;;;;5094212;28;20594;-55
2021/04/15 03:36:25;;;;;;;14.73;11.02;;;;;;;;;;5093746;28;20244;-54
2021/04/15 03:39:02;;;;;;;17.50;11.65;;;;;;;;;;5094073;28;20188;-55
2021/04/15 03:41:32;;;;;;;15.35;10.65;;;;;;;;;;5094195;28;20196;-55
2021/04/15 03:43:58;;;;;;;14.45;11.43;;;;;;;;;;5093982;28;20173;-54
2021/04/15 03:46:44;;;;;;;10.70;9.27;;;;;;;;;;5093872;28;20169;-55
2021/04/15 03:49:16;;;;;;;13.90;10.50;;;;;;;;;;5076594;28;20435;-55
2021/04/15 03:51:46;;;;;;;11.13;9.68;;;;;;;;;;5093938;28;20173;-55
2021/04/15 03:54:14;;;;;;;14.55;10.20;;;;;;;;;;5094163;28;20178;-55
2021/04/15 03:56:43;;;;;;;13.23;8.80;;;;;;;;;;5093452;28;20227;-55
2021/04/15 03:59:09;;;;;;;16.95;9.20;;;;;;;;;;5093578;28;20202;-55
2021/04/15 04:01:38;;;;;;;14.30;9.50;;;;;;;;;;5093440;28;20632;-54
2021/04/15 04:04:07;;;;;;;10.10;8.00;;;;;;;;;;5093581;28;20918;-55
2021/04/15 04:06:37;;;;;;;12.68;9.30;;;;;;;;;;5093299;28;20169;-54
2021/04/15 04:09:11;;;;;;;10.95;9.57;;;;;;;;;;5093358;28;20189;-55
2021/04/15 04:11:38;;;;;;;14.15;9.80;;;;;;;;;;5093561;28;20175;-56
2021/04/15 04:14:08;;;;;;;13.30;10.00;;;;;;;;;;5093169;28;20193;-55
2021/04/15 04:16:39;;;;;;;15.57;9.60;;;;;;;;;;5093218;28;20162;-55
2021/04/15 04:19:05;;;;;;;12.55;9.70;;;;;;;;;;5092182;28;20185;-54
2021/04/15 04:21:31;;;;;;;11.17;8.70;;;;;;;;;;5093504;28;20173;-55
2021/04/15 04:24:07;;;;;;;11.30;9.33;;;;;;;;;;5093153;28;20407;-54
2021/04/15 04:26:35;;;;;;;16.00;10.43;;;;;;;;;;5092987;28;20753;-55
2021/04/15 04:29:08;;;;;;;13.20;10.27;;;;;;;;;;5093077;28;20197;-55
2021/04/15 04:31:38;;;;;;;14.20;10.40;;;;;;;;;;5093162;28;20641;-56
2021/04/15 04:34:05;;;;;;;11.48;9.80;;;;;;;;;;5092912;28;20193;-54
2021/04/15 04:36:33;;;;;;;19.20;11.65;;;;;;;;;;5092883;28;20557;-55
2021/04/15 04:38:59;;;;;;;17.75;13.38;;;;;;;;;;5092714;28;20185;-56
2021/04/15 04:41:43;;;;;;;18.17;11.50;;;;;;;;;;5093239;28;20169;-55
2021/04/15 04:44:14;;;;;;;15.75;11.88;;;;;;;;;;5092838;28;20161;-56
2021/04/15 04:46:52;;;;;;;15.27;12.57;;;;;;;;;;5074487;28;20201;-55
2021/04/15 04:49:38;;;;;;;17.58;11.98;;;;;;;;;;5092743;28;20177;-56
2021/04/15 04:52:09;;;;;;;17.83;12.93;;;;;;;;;;5092423;28;20220;-55
2021/04/15 04:54:37;;;;;;;20.42;12.25;;;;;;;;;;5092781;28;20196;-55
2021/04/15 04:57:14;;;;;;;15.63;11.18;;;;;;;;;;5092300;28;20708;-56
2021/04/15 04:59:47;;;;;;;14.63;11.23;;;;;;;;;;5092560;28;20712;-56
2021/04/15 05:02:15;;;;;;;16.08;11.45;;;;;;;;;;5092581;28;20169;-56
2021/04/15 05:04:43;;;;;;;16.88;11.10;;;;;;;;;;5092871;28;20252;-55
2021/04/15 05:07:13;;;;;;;21.20;11.68;;;;;;;;;;5092308;28;20177;-54
2021/04/15 05:09:41;;;;;;;20.13;12.07;;;;;;;;;;5092574;28;20197;-54
2021/04/15 05:12:08;;;;;;;15.90;12.02;;;;;;;;;;5092295;28;20189;-54
2021/04/15 05:14:34;;;;;;;15.23;11.27;;;;;;;;;;5093116;28;20172;-56
2021/04/15 05:17:16;;;;;;;16.15;12.38;;;;;;;;;;5092102;28;20165;-54
2021/04/15 05:19:42;;;;;;;19.52;13.18;;;;;;;;;;5092462;28;20184;-55
2021/04/15 05:22:09;;;;;;;18.95;11.43;;;;;;;;;;5092176;28;20234;-56
2021/04/15 05:24:40;;;;;;;12.98;11.23;;;;;;;;;;5092319;28;20238;-54
2021/04/15 05:27:06;;;;;;;18.52;13.02;;;;;;;;;;5091743;28;20291;-55
2021/04/15 05:29:38;;;;;;;19.33;13.32;;;;;;;;;;5092028;28;20231;-55
2021/04/15 05:32:04;;;;;;;21.88;12.50;;;;;;;;;;5092066;28;20230;-55
2021/04/15 05:34:30;;;;;;;22.05;13.65;;;;;;;;;;5091962;28;20177;-56
2021/04/15 05:36:58;;;;;;;16.53;12.67;;;;;;;;;;5092253;28;20157;-54
2021/04/15 05:39:25;;;;;;;22.98;14.70;;;;;;;;;;5091549;28;20419;-55
2021/04/15 05:41:57;;;;;;;24.00;15.15;;;;;;;;;;5092037;28;20661;-55
2021/04/15 05:44:55;;;;;;;18.17;14.10;;;;;;;;;;5091601;28;20678;-56
2021/04/15 05:47:29;;;;;;;19.00;15.00;;;;;;;;;;5036672;28;20248;-56
2021/04/15 05:50:05;;;;;;;17.98;13.85;;;;;;;;;;5091383;28;20242;-54
2021/04/15 05:52:41;;;;;;;20.60;15.38;;;;;;;;;;5091542;28;20192;-54
2021/04/15 05:55:11;;;;;;;18.65;13.85;;;;;;;;;;5091305;28;20330;-56
2021/04/15 05:57:42;;;;;;;19.35;14.40;;;;;;;;;;5091354;28;20157;-55
2021/04/15 06:00:28;;;;;;;19.00;14.57;;;;;;;;;;5090673;28;20317;-56
2021/04/15 06:03:00;;;;;;;19.88;14.38;;;;;;;;;;5091307;28;20170;-55
2021/04/15 06:05:26;;;;;;;21.77;14.25;;;;;;;;;;5090563;28;20169;-55
2021/04/15 06:07:53;;;;;;;20.77;14.30;;;;;;;;;;5090822;28;20235;-56
2021/04/15 06:10:26;;;;;;;22.38;14.57;;;;;;;;;;5090648;28;20821;-57
2021/04/15 06:12:59;;;;;;;21.45;13.43;;;;;;;;;;5090577;28;20195;-55
2021/04/15 06:15:28;;;;;;;20.75;14.23;;;;;;;;;;5090894;28;20173;-54
2021/04/15 06:17:57;;;;;;;17.02;13.05;;;;;;;;;;5091210;28;20180;-54
2021/04/15 06:20:25;;;;;;;18.08;13.82;;;;;;;;;;5090968;28;20186;-55
2021/04/15 06:22:53;;;;;;;19.80;14.68;;;;;;;;;;5091150;28;20240;-54
2021/04/15 06:25:24;;;;;;;16.40;13.93;;;;;;;;;;5090772;28;20199;-55
2021/04/15 06:27:51;;;;;;;21.08;14.88;;;;;;;;;;5090939;28;20700;-54
2021/04/15 06:30:22;;;;;;;25.85;14.25;;;;;;;;;;5090982;28;20190;-55
2021/04/15 06:32:55;;;;;;;14.95;12.80;;;;;;;;;;5091097;28;20238;-54
2021/04/15 06:35:25;;;;;;;19.33;13.80;;;;;;;;;;5090828;28;20260;-55
2021/04/15 06:37:53;;;;;;;20.60;14.82;;;;;;;;;;5090765;28;20168;-55
2021/04/15 06:40:28;;;;;;;22.30;14.02;;;;;;;;;;5090934;28;20182;-56
2021/04/15 06:43:07;;;;;;;17.60;13.02;;;;;;;;;;5090278;28;20437;-55
2021/04/15 06:45:51;;;;;;;22.80;14.15;;;;;;;;;;5090639;28;20598;-55
2021/04/15 06:48:36;;;;;;;17.10;13.02;;;;;;;;;;5090623;28;20179;-55
2021/04/15 06:51:05;;;;;;;26.20;13.65;;;;;;;;;;5090794;28;20179;-55
2021/04/15 06:53:31;;;;;;;22.58;14.18;;;;;;;;;;5090730;28;20197;-55
2021/04/15 06:56:09;;;;;;;18.58;12.40;;;;;;;;;;5090661;28;20260;-54
2021/04/15 06:58:56;;;;;;;21.05;13.63;;;;;;;;;;5090307;28;20744;-54
2021/04/15 07:01:40;;;;;;;21.38;12.93;;;;;;;;;;5039855;28;20260;-55
2021/04/15 07:04:12;;;;;;;14.25;12.40;;;;;;;;;;5090701;28;20666;-56
2021/04/15 07:06:41;;;;;;;19.90;12.80;;;;;;;;;;5090581;28;20164;-57
2021/04/15 07:09:26;;;;;;;18.02;12.23;;;;;;;;;;5090616;28;20191;-53
2021/04/15 07:12:10;;;;;;;16.42;11.48;;;;;;;;;;5090965;28;20269;-56
2021/04/15 07:14:36;;;;;;;21.90;13.07;;;;;;;;;;5090654;28;20245;-56
2021/04/15 07:17:02;;;;;;;15.93;11.67;;;;;;;;;;5090519;28;20239;-56
2021/04/15 07:19:39;;;;;;;20.60;12.50;;;;;;;;;;5090288;28;20447;-55
2021/04/15 07:22:23;;;;;;;15.73;11.45;;;;;;;;;;5090646;28;20398;-56
2021/04/15 07:25:04;;;;;;;18.27;10.20;;;;;;;;;;5090489;28;20169;-55
2021/04/15 07:27:34;;;;;;;14.90;9.50;;;;;;;;;;5090425;28;20548;-55
2021/04/15 07:30:02;;;;;;;15.53;9.60;;;;;;;;;;5090087;28;20415;-55
2021/04/15 07:32:47;;;;;;;17.33;8.93;;;;;;;;;;5090335;28;20825;-55
2021/04/15 07:35:32;;;;;;;19.67;8.73;;;;;;;;;;5090024;28;20404;-56
2021/04/15 07:38:09;;;;;;;15.00;8.77;;;;;;;;;;5090435;28;20791;-56
2021/04/15 07:40:44;;;;;;;19.23;8.87;;;;;;;;;;5090141;28;20406;-57
2021/04/15 07:43:27;;;;;;;9.50;5.57;;;;;;;;;;5090287;28;20406;-56
2021/04/15 07:46:12;;;;;;;10.93;7.63;;;;;;;;;;5089849;28;20832;-56
2021/04/15 07:48:53;;;;;;;14.50;6.67;;;;;;;;;;5090152;28;20415;-56
2021/04/15 07:51:24;;;;;;;9.37;6.47;;;;;;;;;;5090185;28;20481;-55
2021/04/15 07:54:09;;;;;;;8.87;5.80;;;;;;;;;;5090415;28;20459;-55
2021/04/15 07:56:54;;;;;;;17.97;6.70;;;;;;;;;;5093424;28;20413;-56
2021/04/15 07:59:32;;;;;;;12.33;8.50;;;;;;;;;;5093591;28;20489;-56
2021/04/15 08:02:05;;;;;;;12.10;6.83;;;;;;;;;;5093657;28;20480;-56
2021/04/15 08:04:43;;;;;;;9.00;7.10;;;;;;;;;;5094097;28;20362;-56
2021/04/15 08:07:20;;;;;;;7.23;6.40;;;;;;;;;;5093173;28;20391;-56
2021/04/15 08:09:49;;;;;;;6.40;5.57;;;;;;;;;;5093496;28;20443;-56
2021/04/15 08:12:18;;;;;;;5.80;4.90;;;;;;;;;;5093403;28;20482;-56
2021/04/15 08:14:44;;;;;;;7.27;5.17;;;;;;;;;;5093521;28;20392;-56
2021/04/15 08:17:10;;;;;;;11.63;5.30;;;;;;;;;;5093050;28;20395;-56
2021/04/15 08:19:39;;;;;;;10.47;5.33;;;;;;;;;;5093359;28;20440;-56
2021/04/15 08:22:09;;;;;;;12.70;6.20;;;;;;;;;;5093315;28;20392;-56
2021/04/15 08:24:49;;;;;;;7.13;5.23;;;;;;;;;;5093127;28;20403;-55
2021/04/15 08:27:21;;;;;;;18.17;5.63;;;;;;;;;;5093003;28;20402;-57
2021/04/15 08:29:47;;;;;;;10.63;6.20;;;;;;;;;;5087973;28;20906;-57
2021/04/15 08:32:31;;;;;;;13.73;6.87;;;;;;;;;;5072677;28;20448;-55
2021/04/15 08:35:16;;;;;;;9.20;6.17;;;;;;;;;;5072602;28;20379;-55
2021/04/15 08:37:46;;;;;;;9.37;6.10;;;;;;;;;;5072809;28;20396;-55
2021/04/15 08:40:15;;;;;;;9.40;7.10;;;;;;;;;;5072609;28;20436;-56
2021/04/15 08:42:54;;;;;;;13.73;7.27;;;;;;;;;;5072828;28;20476;-56
2021/04/15 08:45:28;;;;;;;9.97;8.03;;;;;;;;;;5072657;28;20382;-56
2021/04/15 08:48:12;;;;;;;14.23;9.00;;;;;;;;;;5072891;28;20482;-56
2021/04/15 08:50:38;;;;;;;11.07;9.27;;;;;;;;;;5072623;28;20415;-55
2021/04/15 08:53:04;;;;;;;15.40;12.37;;;;;;;;;;5072496;28;20430;-56
2021/04/15 08:55:30;;;;;;;15.20;11.33;;;;;;;;;;5071855;28;20408;-56
2021/04/15 08:58:11;;;;;;;19.10;11.30;;;;;;;;;;5072683;28;20375;-54
2021/04/15 09:00:44;;;;;;;20.73;14.13;;;;;;;;;;5072394;28;20433;-57
2021/04/15 09:03:30;;;;;;;24.60;14.13;;;;;;;;;;5072331;28;20403;-56
2021/04/15 09:05:59;;;;;;;14.03;11.20;;;;;;;;;;5071453;28;20401;-56
2021/04/15 09:08:27;;;;;;;16.10;11.80;;;;;;;;;;5071987;28;20874;-56
2021/04/15 09:11:11;;;;;;;14.93;11.20;;;;;;;;;;5072114;28;20379;-57
2021/04/15 09:13:55;;;;;;;12.60;9.10;;;;;;;;;;5071869;28;20471;-54
2021/04/15 09:16:36;;;;;;;11.63;9.73;;;;;;;;;;5071735;28;20363;-55
2021/04/15 09:19:15;;;;;;;11.90;8.93;;;;;;;;;;5071813;28;20413;-57
2021/04/15 09:21:48;;;;;;;14.90;9.00;;;;;;;;;;5076892;28;20381;-57
2021/04/15 09:24:16;;;;;;;12.60;9.47;;;;;;;;;;5100977;28;20415;-55
2021/04/15 09:27:06;;;;;;;14.30;8.97;;;;;;;;;;5090809;28;20389;-56
2021/04/15 09:29:37;;;;;;;9.83;8.30;;;;;;;;;;5091691;28;20914;-56
2021/04/15 09:32:10;;;;;;;10.47;8.13;;;;;;;;;;5091513;28;20395;-56
2021/04/15 09:34:51;;;;;;;14.17;8.50;;;;;;;;;;5091624;28;20893;-56
2021/04/15 09:37:20;;;;;;;11.47;9.57;;;;;;;;;;5091733;28;20370;-56
2021/04/15 09:39:57;;;;;;;13.90;8.90;;;;;;;;;;5091414;28;20415;-56
2021/04/15 09:42:42;;;;;;;11.13;8.40;;;;;;;;;;5091592;28;20431;-55
2021/04/15 09:45:20;;;;;;;14.23;8.87;;;;;;;;;;5091268;28;20711;-55
2021/04/15 09:47:56;;;;;;;13.93;8.13;;;;;;;;;;5091647;28;20910;-56
2021/04/15 09:50:36;;;;;;;8.80;7.90;;;;;;;;;;5091569;28;20824;-54
2021/04/15 09:53:06;;;;;;;8.80;7.90;;;;;;;;;;5091348;28;20450;-55
2021/04/15 09:55:40;;;;;;;10.00;9.10;;;;;;;;;;5090912;28;20525;-55
2021/04/15 09:58:06;;;;;;;8.50;7.20;;;;;;;;;;5091012;28;20892;-55
2021/04/15 10:00:38;;;;;;;6.30;5.30;;;;;;;;;;5091313;28;20455;-57
2021/04/15 10:03:09;;;;;;;8.67;6.60;;;;;;;;;;5091170;28;20429;-56
2021/04/15 10:05:54;;;;;;;6.67;5.93;;;;;;;;;;5091130;28;20403;-55
2021/04/15 10:08:22;;;;;;;8.40;5.50;;;;;;;;;;5090305;28;20411;-55
2021/04/15 10:10:52;;;;;;;7.07;5.50;;;;;;;;;;5095962;28;20773;-55
2021/04/15 10:13:32;;;;;;;5.83;5.30;;;;;;;;;;5111015;28;20446;-56
2021/04/15 10:16:00;;;;;;;6.47;5.00;;;;;;;;;;5111213;28;20402;-54
2021/04/15 10:18:35;;;;;;;5.37;4.63;;;;;;;;;;5110520;28;20478;-55
2021/04/15 10:21:20;;;;;;;5.93;5.43;;;;;;;;;;5111337;28;20768;-55
2021/04/15 10:23:51;;;;;;;5.10;4.70;;;;;;;;;;5110994;28;20414;-55
2021/04/15 10:26:20;;;;;;;6.20;4.37;;;;;;;;;;5111015;28;20365;-55
2021/04/15 10:29:05;;;;;;;6.73;4.30;;;;;;;;;;5111224;28;20934;-56
2021/04/15 10:31:31;;;;;;;5.00;4.13;;;;;;;;;;5110930;28;20377;-57
2021/04/15 10:34:12;;;;;;;4.10;3.80;;;;;;;;;;5111166;28;20453;-56
2021/04/15 10:36:52;;;;;;;3.60;3.30;;;;;;;;;;5110601;28;20394;-55
2021/04/15 10:39:18;;;;;;;5.00;3.60;;;;;;;;;;5111049;28;20421;-56
2021/04/15 10:42:03;;;;;;;7.33;3.47;;;;;;;;;;5111157;28;20406;-56
2021/04/15 10:44:37;;;;;;;3.73;3.43;;;;;;;;;;5111259;28;20376;-55
2021/04/15 10:47:03;;;;;;;3.20;2.77;;;;;;;;;;5110610;28;20380;-56
2021/04/15 10:49:48;;;;;;;5.07;3.43;;;;;;;;;;5110703;28;20422;-57
2021/04/15 10:52:30;;;;;;;4.43;3.83;;;;;;;;;;5092220;28;20908;-56
2021/04/15 10:55:12;;;;;;;6.50;3.43;;;;;;;;;;5073887;28;20471;-57
2021/04/15 10:57:38;;;;;;;4.13;2.80;;;;;;;;;;5073149;28;20801;-56
2021/04/15 11:00:23;;;;;;;4.87;3.23;;;;;;;;;;5091226;28;20932;-55
2021/04/15 11:02:50;;;;;;;5.30;3.40;;;;;;;;;;5072916;28;20378;-55
2021/04/15 11:05:16;;;;;;;4.23;3.93;;;;;;;;;;5090961;28;20399;-54
2021/04/15 11:07:44;;;;;;;6.43;4.53;;;;;;;;;;5073024;28;20486;-56
2021/04/15 11:10:16;;;;;;;6.53;4.60;;;;;;;;;;5091722;28;20428;-52
2021/04/15 11:12:42;;;;;;;4.80;4.30;;;;;;;;;;5091005;28;20455;-52
2021/04/15 11:15:22;;;;;;;6.40;4.30;;;;;;;;;;5090696;28;20755;-52
2021/04/15 11:17:49;;;;;;;5.20;4.80;;;;;;;;;;5091212;28;20787;-52
2021/04/15 11:20:15;;;;;;;6.27;5.70;;;;;;;;;;5090049;28;20567;-55
2021/04/15 11:22:43;;;;;;;6.27;5.77;;;;;;;;;;5090189;28;20406;-52
2021/04/15 11:25:15;;;;;;;7.00;5.50;;;;;;;;;;5089939;28;20410;-56
2021/04/15 11:27:41;;;;;;;12.10;6.10;;;;;;;;;;5090850;28;20768;-55
2021/04/15 11:30:08;;;;;;;6.20;5.30;;;;;;;;;;5094457;28;20789;-56
2021/04/15 11:32:41;;;;;;;6.50;5.37;;;;;;;;;;5094405;28;20449;-54
2021/04/15 11:35:18;;;;;;;8.30;5.50;;;;;;;;;;5093721;28;20825;-57
2021/04/15 11:37:45;;;;;;;10.20;5.43;;;;;;;;;;5093947;28;20417;-55
2021/04/15 11:40:20;;;;;;;9.37;5.90;;;;;;;;;;5093909;28;20449;-55
2021/04/15 11:42:46;;;;;;;10.50;6.03;;;;;;;;;;5093981;28;20435;-55
2021/04/15 11:45:26;;;;;;;6.87;6.17;;;;;;;;;;5093487;28;20453;-55
2021/04/15 11:47:52;;;;;;;8.30;5.60;;;;;;;;;;5094006;28;20409;-56
2021/04/15 11:50:22;;;;;;;8.23;6.50;;;;;;;;;;5093131;28;20533;-55
2021/04/15 11:52:51;;;;;;;7.63;6.80;;;;;;;;;;5091896;28;20458;-55
2021/04/15 11:55:28;;;;;;;7.83;7.03;;;;;;;;;;5091780;28;20556;-56
2021/04/15 11:58:02;;;;;;;9.90;7.50;;;;;;;;;;5092548;28;20405;-56
2021/04/15 12:00:32;;;;;;;9.53;7.20;;;;;;;;;;5093138;28;20419;-54
2021/04/15 12:02:58;;;;;;;7.30;6.60;;;;;;;;;;5104994;28;20455;-54
2021/04/15 12:05:29;;;;;;;9.90;7.47;;;;;;;;;;5111682;28;20882;-56
2021/04/15 12:07:58;;;;;;;8.83;6.77;;;;;;;;;;5111853;28;20391;-55
2021/04/15 12:10:25;;;;;;;11.33;8.03;;;;;;;;;;5112263;28;21085;-54
2021/04/15 12:12:53;;;;;;;10.57;7.33;;;;;;;;;;5112064;28;20985;-55
2021/04/15 12:15:22;;;;;;;7.27;6.50;;;;;;;;;;5113300;28;20870;-55
2021/04/15 12:17:57;;;;;;;8.53;6.73;;;;;;;;;;5113431;28;20436;-55
2021/04/15 12:20:30;;;;;;;8.80;6.03;;;;;;;;;;5093396;28;20795;-55
2021/04/15 12:23:00;;;;;;;6.80;6.13;;;;;;;;;;5109630;28;20414;-55
2021/04/15 12:25:30;;;;;;;11.13;6.13;;;;;;;;;;5081096;28;20472;-55
2021/04/15 12:28:12;;;;;;;6.37;5.77;;;;;;;;;;5093133;28;20487;-55
2021/04/15 12:30:39;;;;;;;8.60;5.93;;;;;;;;;;5096372;28;20419;-55
2021/04/15 12:33:14;;;;;;;5.77;5.27;;;;;;;;;;5087382;28;20452;-54
2021/04/15 12:35:47;;;;;;;8.30;6.30;;;;;;;;;;5082654;28;20410;-55
2021/04/15 12:38:18;;;;;;;7.90;6.63;;;;;;;;;;5074602;28;20462;-54
2021/04/15 12:40:45;;;;;;;8.27;6.50;;;;;;;;;;5087717;28;20442;-54
2021/04/15 12:43:13;;;;;;;7.30;6.60;;;;;;;;;;5078846;28;20800;-55
2021/04/15 12:45:42;;;;;;;8.10;7.30;;;;;;;;;;5075194;28;20411;-54
2021/04/15 12:48:12;;;;;;;9.80;7.20;;;;;;;;;;5082087;28;20415;-55
2021/04/15 12:50:38;;;;;;;11.00;7.23;;;;;;;;;;5083299;28;20420;-55
2021/04/15 12:53:05;;;;;;;8.53;6.87;;;;;;;;;;5091447;28;20474;-55
2021/04/15 12:55:31;;;;;;;7.80;7.10;;;;;;;;;;5102384;28;20406;-55
2021/04/15 12:57:58;;;;;;;6.20;5.70;;;;;;;;;;5092454;28;20475;-55
2021/04/15 13:00:47;;;;;;;6.07;5.50;;;;;;;;;;5111052;28;20426;-55
2021/04/15 13:03:20;;;;;;;11.70;5.57;;;;;;;;;;5100127;28;20393;-56
2021/04/15 13:05:52;;;;;;;4.90;4.40;;;;;;;;;;5110859;28;20403;-56
2021/04/15 13:08:36;;;;;;;9.03;4.70;;;;;;;;;;5110745;28;20497;-56
2021/04/15 13:11:04;;;;;;;5.30;4.90;;;;;;;;;;5111898;28;20383;-55
2021/04/15 13:13:38;;;;;;;5.17;4.67;;;;;;;;;;5112221;28;20511;-55
2021/04/15 13:16:06;;;;;;;6.40;5.10;;;;;;;;;;5112356;28;20888;-54
2021/04/15 13:18:37;;;;;;;5.97;5.17;;;;;;;;;;5112437;28;20478;-56
2021/04/15 13:21:08;;;;;;;5.30;4.43;;;;;;;;;;5112515;28;20374;-55
2021/04/15 13:23:37;;;;;;;7.40;4.53;;;;;;;;;;5112357;28;20471;-55
2021/04/15 13:26:03;;;;;;;5.47;4.50;;;;;;;;;;5111918;28;20408;-55
2021/04/15 13:28:47;;;;;;;4.97;3.73;;;;;;;;;;5112455;28;20489;-56
2021/04/15 13:31:37;;;;;;;6.67;3.50;;;;;;;;;;5071085;28;20367;-56
2021/04/15 13:34:06;;;;;;;4.07;3.30;;;;;;;;;;5061317;28;20445;-56
2021/04/15 13:36:33;;;;;;;3.37;3.07;;;;;;;;;;5071135;28;20756;-55
2021/04/15 13:39:02;;;;;;;5.27;4.23;;;;;;;;;;5071298;28;20391;-55
2021/04/15 13:41:28;;;;;;;7.27;3.97;;;;;;;;;;5070961;28;20438;-58
2021/04/15 13:44:13;;;;;;;4.23;3.57;;;;;;;;;;5071547;28;20416;-56
2021/04/15 13:46:41;;;;;;;3.33;3.10;;;;;;;;;;5070687;28;20408;-55
2021/04/15 13:49:18;;;;;;;6.00;5.27;;;;;;;;;;5070907;28;20431;-55
2021/04/15 13:51:53;;;;;;;6.13;5.50;;;;;;;;;;5070134;28;21134;-56
2021/04/15 13:54:32;;;;;;;6.27;5.67;;;;;;;;;;5070983;28;20447;-55
2021/04/15 13:57:08;;;;;;;6.00;5.40;;;;;;;;;;5070985;28;20408;-55
2021/04/15 14:02:05;;;;;;;6.60;4.80;;;;;;;;;;5071381;28;20472;-55
2021/04/15 14:04:43;;;;;;;8.00;5.13;;;;;;;;;;5071035;28;20487;-56
2021/04/15 14:07:21;;;;;;;14.93;5.13;;;;;;;;;;5070751;28;20910;-55
2021/04/15 14:09:49;;;;;;;8.20;5.80;;;;;;;;;;5070703;28;20553;-55
2021/04/15 14:12:34;;;;;;;6.73;4.70;;;;;;;;;;5070747;28;20482;-54
2021/04/15 14:15:01;;;;;;;5.10;4.63;;;;;;;;;;5070964;28;20907;-54
2021/04/15 14:17:28;;;;;;;4.40;4.00;;;;;;;;;;5070584;28;20374;-55
2021/04/15 14:20:05;;;;;;;5.63;4.50;;;;;;;;;;5070681;28;20404;-54
2021/04/15 14:22:33;;;;;;;5.40;4.87;;;;;;;;;;5070681;28;20393;-55
2021/04/15 14:25:05;;;;;;;5.37;4.60;;;;;;;;;;5070441;28;20375;-54
2021/04/15 14:27:34;;;;;;;4.70;4.03;;;;;;;;;;5070637;28;20582;-54
2021/04/15 14:30:09;;;;;;;4.97;4.57;;;;;;;;;;5070818;28;20907;-54
2021/04/15 14:32:38;;;;;;;5.83;5.13;;;;;;;;;;5070510;28;20861;-55
2021/04/15 14:35:16;;;;;;;4.33;4.00;;;;;;;;;;5070233;28;20407;-55
2021/04/15 14:37:43;;;;;;;6.27;4.23;;;;;;;;;;5070420;28;20407;-54
2021/04/15 14:40:27;;;;;;;4.50;4.20;;;;;;;;;;5070943;28;20476;-54
2021/04/15 14:42:53;;;;;;;4.60;3.93;;;;;;;;;;5070666;28;20404;-55
2021/04/15 14:45:33;;;;;;;7.93;4.00;;;;;;;;;;5070667;28;20668;-55
2021/04/15 14:48:00;;;;;;;95.50;42.50;;;;;;;;;;5070784;28;20402;-55
2021/04/15 14:50:26;;;;;;;7.10;4.00;;;;;;;;;;5070863;28;20424;-56
2021/04/15 14:52:53;;;;;;;4.80;3.50;;;;;;;;;;5070639;28;20458;-55
2021/04/15 14:55:19;;;;;;;3.93;3.23;;;;;;;;;;5070470;28;20451;-56
2021/04/15 14:57:45;;;;;;;5.23;3.67;;;;;;;;;;5070257;28;20919;-56
2021/04/15 15:00:13;;;;;;;5.63;3.27;;;;;;;;;;5069725;28;20949;-56
2021/04/15 15:02:40;;;;;;;5.10;3.60;;;;;;;;;;5070158;28;20896;-56